sensor_id;sensor_type;location;lat;lon;timestamp;P1;durP1;ratioP1;P2;durP2;ratioP2
65658;SDS011;60181;53.258;6.932;2023-08-20T00:01:31;12.20;;;7.20;;
65658;SDS011;60181;53.258;6.932;2023-08-20T00:05:41;13.10;;;7.50;;
65658;SDS011;60181;53.258;6.932;2023-08-20T00:09:51;13.10;;;7.50;;
65658;SDS011;60181;53.258;6.932;2023-08-20T00:14:01;13.80;;;7.50;;
65658;SDS011;60181;53.258;6.932;2023-08-20T00:18:11;13.80;;;7.50;;
65658;SDS011;60181;53.258;6.932;2023-08-20T00:22:22;13.80;;;7.50;;
65658;SDS011;60181;53.258;6.932;2023-08-20T00:26:31;12.10;;;7.10;;
65658;SDS011;60181;53.258;6.932;2023-08-20T00:30:41;12.10;;;7.10;;
65658;SDS011;60181;53.258;6.932;2023-08-20T00:34:51;14.10;;;7.90;;
65658;SDS011;60181;53.258;6.932;2023-08-20T00:39:01;14.10;;;7.90;;
65658;SDS011;60181;53.258;6.932;2023-08-20T00:43:11;14.00;;;7.40;;
65658;SDS011;60181;53.258;6.932;2023-08-20T00:47:21;14.00;;;7.40;;
65658;SDS011;60181;53.258;6.932;2023-08-20T00:51:34;14.00;;;7.40;;
65658;SDS011;60181;53.258;6.932;2023-08-20T00:55:44;14.00;;;7.30;;
65658;SDS011;60181;53.258;6.932;2023-08-20T00:59:51;14.00;;;7.30;;
65658;SDS011;60181;53.258;6.932;2023-08-20T01:04:01;14.00;;;7.50;;
65658;SDS011;60181;53.258;6.932;2023-08-20T01:08:28;14.00;;;7.50;;
65658;SDS011;60181;53.258;6.932;2023-08-20T01:12:21;14.00;;;7.50;;
65658;SDS011;60181;53.258;6.932;2023-08-20T01:16:31;12.70;;;7.40;;
65658;SDS011;60181;53.258;6.932;2023-08-20T01:20:43;12.70;;;7.40;;
65658;SDS011;60181;53.258;6.932;2023-08-20T01:29:01;13.20;;;7.00;;
65658;SDS011;60181;53.258;6.932;2023-08-20T01:33:11;12.40;;;7.00;;
65658;SDS011;60181;53.258;6.932;2023-08-20T01:37:21;12.40;;;7.00;;
65658;SDS011;60181;53.258;6.932;2023-08-20T01:41:31;12.40;;;7.00;;
65658;SDS011;60181;53.258;6.932;2023-08-20T01:45:41;14.80;;;7.20;;
65658;SDS011;60181;53.258;6.932;2023-08-20T01:49:51;14.80;;;7.20;;
65658;SDS011;60181;53.258;6.932;2023-08-20T01:54:01;12.70;;;7.00;;
65658;SDS011;60181;53.258;6.932;2023-08-20T01:58:11;12.70;;;7.00;;
65658;SDS011;60181;53.258;6.932;2023-08-20T02:02:21;12.70;;;7.00;;
65658;SDS011;60181;53.258;6.932;2023-08-20T02:06:31;14.80;;;7.20;;
65658;SDS011;60181;53.258;6.932;2023-08-20T02:10:41;14.80;;;7.20;;
65658;SDS011;60181;53.258;6.932;2023-08-20T02:14:51;14.60;;;7.00;;
65658;SDS011;60181;53.258;6.932;2023-08-20T02:19:01;14.60;;;7.00;;
65658;SDS011;60181;53.258;6.932;2023-08-20T02:23:11;15.20;;;7.10;;
65658;SDS011;60181;53.258;6.932;2023-08-20T02:27:21;15.20;;;7.10;;
65658;SDS011;60181;53.258;6.932;2023-08-20T02:31:31;15.20;;;7.10;;
65658;SDS011;60181;53.258;6.932;2023-08-20T02:35:41;14.50;;;6.60;;
65658;SDS011;60181;53.258;6.932;2023-08-20T02:39:51;14.50;;;6.60;;
65658;SDS011;60181;53.258;6.932;2023-08-20T02:44:01;14.20;;;6.80;;
65658;SDS011;60181;53.258;6.932;2023-08-20T02:48:11;14.20;;;6.80;;
65658;SDS011;60181;53.258;6.932;2023-08-20T02:52:21;14.20;;;6.80;;
65658;SDS011;60181;53.258;6.932;2023-08-20T02:56:31;15.00;;;6.30;;
65658;SDS011;60181;53.258;6.932;2023-08-20T03:00:41;15.00;;;6.30;;
65658;SDS011;60181;53.258;6.932;2023-08-20T03:04:51;13.00;;;6.40;;
65658;SDS011;60181;53.258;6.932;2023-08-20T03:09:01;13.00;;;6.40;;
65658;SDS011;60181;53.258;6.932;2023-08-20T03:13:11;12.90;;;6.20;;
65658;SDS011;60181;53.258;6.932;2023-08-20T03:17:21;12.90;;;6.20;;
65658;SDS011;60181;53.258;6.932;2023-08-20T03:21:31;12.90;;;6.20;;
65658;SDS011;60181;53.258;6.932;2023-08-20T03:25:41;11.90;;;6.10;;
65658;SDS011;60181;53.258;6.932;2023-08-20T03:29:51;11.90;;;6.10;;
65658;SDS011;60181;53.258;6.932;2023-08-20T03:34:01;13.60;;;6.00;;
65658;SDS011;60181;53.258;6.932;2023-08-20T03:38:11;13.60;;;6.00;;
65658;SDS011;60181;53.258;6.932;2023-08-20T03:42:21;13.60;;;6.00;;
65658;SDS011;60181;53.258;6.932;2023-08-20T03:46:31;13.00;;;5.50;;
65658;SDS011;60181;53.258;6.932;2023-08-20T03:50:41;13.00;;;5.50;;
65658;SDS011;60181;53.258;6.932;2023-08-20T03:54:51;12.80;;;5.80;;
65658;SDS011;60181;53.258;6.932;2023-08-20T03:59:01;12.80;;;5.80;;
65658;SDS011;60181;53.258;6.932;2023-08-20T04:03:11;9.90;;;5.40;;
65658;SDS011;60181;53.258;6.932;2023-08-20T04:07:21;9.90;;;5.40;;
65658;SDS011;60181;53.258;6.932;2023-08-20T04:11:31;9.90;;;5.40;;
65658;SDS011;60181;53.258;6.932;2023-08-20T04:15:41;11.00;;;5.40;;
65658;SDS011;60181;53.258;6.932;2023-08-20T04:19:51;11.00;;;5.40;;
65658;SDS011;60181;53.258;6.932;2023-08-20T04:24:01;10.40;;;5.20;;
65658;SDS011;60181;53.258;6.932;2023-08-20T04:28:11;10.40;;;5.20;;
65658;SDS011;60181;53.258;6.932;2023-08-20T04:32:21;10.40;;;5.20;;
65658;SDS011;60181;53.258;6.932;2023-08-20T04:36:31;8.40;;;4.80;;
65658;SDS011;60181;53.258;6.932;2023-08-20T04:40:41;8.40;;;4.80;;
65658;SDS011;60181;53.258;6.932;2023-08-20T04:44:51;11.80;;;4.80;;
65658;SDS011;60181;53.258;6.932;2023-08-20T04:49:01;11.80;;;4.80;;
65658;SDS011;60181;53.258;6.932;2023-08-20T04:53:11;9.30;;;4.90;;
65658;SDS011;60181;53.258;6.932;2023-08-20T04:57:21;9.30;;;4.90;;
65658;SDS011;60181;53.258;6.932;2023-08-20T05:01:31;9.30;;;4.90;;
65658;SDS011;60181;53.258;6.932;2023-08-20T05:05:41;9.00;;;4.60;;
65658;SDS011;60181;53.258;6.932;2023-08-20T05:09:51;9.00;;;4.60;;
65658;SDS011;60181;53.258;6.932;2023-08-20T05:14:01;9.50;;;4.50;;
65658;SDS011;60181;53.258;6.932;2023-08-20T05:18:11;9.50;;;4.50;;
65658;SDS011;60181;53.258;6.932;2023-08-20T05:22:21;9.50;;;4.50;;
65658;SDS011;60181;53.258;6.932;2023-08-20T05:26:31;8.50;;;4.70;;
65658;SDS011;60181;53.258;6.932;2023-08-20T05:30:41;8.50;;;4.70;;
65658;SDS011;60181;53.258;6.932;2023-08-20T05:34:51;10.00;;;4.60;;
65658;SDS011;60181;53.258;6.932;2023-08-20T05:39:01;10.00;;;4.60;;
65658;SDS011;60181;53.258;6.932;2023-08-20T05:43:11;9.70;;;4.40;;
65658;SDS011;60181;53.258;6.932;2023-08-20T05:47:21;9.70;;;4.40;;
65658;SDS011;60181;53.258;6.932;2023-08-20T05:51:31;9.70;;;4.40;;
65658;SDS011;60181;53.258;6.932;2023-08-20T05:55:41;9.20;;;4.20;;
65658;SDS011;60181;53.258;6.932;2023-08-20T05:59:51;9.20;;;4.20;;
65658;SDS011;60181;53.258;6.932;2023-08-20T06:04:01;10.00;;;4.30;;
65658;SDS011;60181;53.258;6.932;2023-08-20T06:08:11;10.00;;;4.30;;
65658;SDS011;60181;53.258;6.932;2023-08-20T06:12:21;10.00;;;4.30;;
65658;SDS011;60181;53.258;6.932;2023-08-20T06:16:31;8.40;;;3.90;;
65658;SDS011;60181;53.258;6.932;2023-08-20T06:20:41;8.40;;;3.90;;
65658;SDS011;60181;53.258;6.932;2023-08-20T06:24:51;8.10;;;4.10;;
65658;SDS011;60181;53.258;6.932;2023-08-20T06:29:01;8.10;;;4.10;;
65658;SDS011;60181;53.258;6.932;2023-08-20T06:33:11;9.70;;;4.00;;
65658;SDS011;60181;53.258;6.932;2023-08-20T06:37:21;9.70;;;4.00;;
65658;SDS011;60181;53.258;6.932;2023-08-20T06:41:31;9.70;;;4.00;;
65658;SDS011;60181;53.258;6.932;2023-08-20T06:45:41;7.30;;;3.90;;
65658;SDS011;60181;53.258;6.932;2023-08-20T06:49:51;7.30;;;3.90;;
65658;SDS011;60181;53.258;6.932;2023-08-20T06:54:01;8.10;;;4.00;;
65658;SDS011;60181;53.258;6.932;2023-08-20T06:58:11;8.10;;;4.00;;
65658;SDS011;60181;53.258;6.932;2023-08-20T07:02:21;8.10;;;4.00;;
65658;SDS011;60181;53.258;6.932;2023-08-20T07:06:31;7.80;;;4.30;;
65658;SDS011;60181;53.258;6.932;2023-08-20T07:10:41;7.80;;;4.30;;
65658;SDS011;60181;53.258;6.932;2023-08-20T07:14:51;10.40;;;5.00;;
65658;SDS011;60181;53.258;6.932;2023-08-20T07:19:01;10.40;;;5.00;;
65658;SDS011;60181;53.258;6.932;2023-08-20T07:23:11;11.20;;;6.10;;
65658;SDS011;60181;53.258;6.932;2023-08-20T07:27:21;11.20;;;6.10;;
65658;SDS011;60181;53.258;6.932;2023-08-20T07:31:32;11.20;;;6.10;;
65658;SDS011;60181;53.258;6.932;2023-08-20T07:35:41;13.80;;;7.60;;
65658;SDS011;60181;53.258;6.932;2023-08-20T07:39:51;13.80;;;7.60;;
65658;SDS011;60181;53.258;6.932;2023-08-20T07:44:01;9.10;;;4.60;;
65658;SDS011;60181;53.258;6.932;2023-08-20T07:48:11;9.10;;;4.60;;
65658;SDS011;60181;53.258;6.932;2023-08-20T07:52:21;9.10;;;4.60;;
65658;SDS011;60181;53.258;6.932;2023-08-20T07:56:31;15.10;;;7.80;;
65658;SDS011;60181;53.258;6.932;2023-08-20T08:00:41;15.10;;;7.80;;
65658;SDS011;60181;53.258;6.932;2023-08-20T08:04:51;17.70;;;9.20;;
65658;SDS011;60181;53.258;6.932;2023-08-20T08:09:19;17.70;;;9.20;;
65658;SDS011;60181;53.258;6.932;2023-08-20T08:13:11;20.20;;;10.50;;
65658;SDS011;60181;53.258;6.932;2023-08-20T08:17:21;20.20;;;10.50;;
65658;SDS011;60181;53.258;6.932;2023-08-20T08:21:31;20.20;;;10.50;;
65658;SDS011;60181;53.258;6.932;2023-08-20T08:25:41;20.70;;;11.20;;
65658;SDS011;60181;53.258;6.932;2023-08-20T08:29:51;20.70;;;11.20;;
65658;SDS011;60181;53.258;6.932;2023-08-20T08:34:03;21.60;;;11.40;;
65658;SDS011;60181;53.258;6.932;2023-08-20T08:38:11;21.60;;;11.40;;
65658;SDS011;60181;53.258;6.932;2023-08-20T08:42:21;21.60;;;11.40;;
65658;SDS011;60181;53.258;6.932;2023-08-20T08:46:31;21.40;;;11.80;;
65658;SDS011;60181;53.258;6.932;2023-08-20T08:50:41;21.40;;;11.80;;
65658;SDS011;60181;53.258;6.932;2023-08-20T08:54:51;22.60;;;12.30;;
65658;SDS011;60181;53.258;6.932;2023-08-20T08:59:01;22.60;;;12.30;;
65658;SDS011;60181;53.258;6.932;2023-08-20T09:03:10;25.20;;;13.00;;
65658;SDS011;60181;53.258;6.932;2023-08-20T09:07:20;25.20;;;13.00;;
65658;SDS011;60181;53.258;6.932;2023-08-20T09:11:34;25.20;;;13.00;;
65658;SDS011;60181;53.258;6.932;2023-08-20T09:15:40;24.80;;;13.10;;
65658;SDS011;60181;53.258;6.932;2023-08-20T09:19:50;24.80;;;13.10;;
65658;SDS011;60181;53.258;6.932;2023-08-20T09:24:01;22.30;;;12.60;;
65658;SDS011;60181;53.258;6.932;2023-08-20T09:28:10;22.30;;;12.60;;
65658;SDS011;60181;53.258;6.932;2023-08-20T09:32:29;22.30;;;12.60;;
65658;SDS011;60181;53.258;6.932;2023-08-20T09:36:31;23.10;;;12.60;;
65658;SDS011;60181;53.258;6.932;2023-08-20T09:40:40;23.10;;;12.60;;
65658;SDS011;60181;53.258;6.932;2023-08-20T09:44:50;23.10;;;12.80;;
65658;SDS011;60181;53.258;6.932;2023-08-20T09:49:00;23.10;;;12.80;;
65658;SDS011;60181;53.258;6.932;2023-08-20T09:57:33;22.50;;;12.30;;
65658;SDS011;60181;53.258;6.932;2023-08-20T10:01:30;22.50;;;12.30;;
65658;SDS011;60181;53.258;6.932;2023-08-20T10:05:40;24.00;;;12.20;;
65658;SDS011;60181;53.258;6.932;2023-08-20T10:09:50;24.00;;;12.20;;
65658;SDS011;60181;53.258;6.932;2023-08-20T10:14:00;21.30;;;11.80;;
65658;SDS011;60181;53.258;6.932;2023-08-20T10:18:10;21.30;;;11.80;;
65658;SDS011;60181;53.258;6.932;2023-08-20T10:22:20;21.30;;;11.80;;
65658;SDS011;60181;53.258;6.932;2023-08-20T10:26:31;22.50;;;12.00;;
65658;SDS011;60181;53.258;6.932;2023-08-20T10:31:02;22.50;;;12.00;;
65658;SDS011;60181;53.258;6.932;2023-08-20T10:34:51;20.70;;;11.50;;
65658;SDS011;60181;53.258;6.932;2023-08-20T10:39:02;20.70;;;11.50;;
65658;SDS011;60181;53.258;6.932;2023-08-20T10:43:10;20.60;;;11.20;;
65658;SDS011;60181;53.258;6.932;2023-08-20T10:47:21;20.60;;;11.20;;
65658;SDS011;60181;53.258;6.932;2023-08-20T10:51:32;20.60;;;11.20;;
65658;SDS011;60181;53.258;6.932;2023-08-20T10:55:47;19.30;;;10.60;;
65658;SDS011;60181;53.258;6.932;2023-08-20T10:59:57;19.30;;;10.60;;
65658;SDS011;60181;53.258;6.932;2023-08-20T11:04:00;19.10;;;10.20;;
65658;SDS011;60181;53.258;6.932;2023-08-20T11:08:10;19.10;;;10.20;;
65658;SDS011;60181;53.258;6.932;2023-08-20T11:12:20;19.10;;;10.20;;
65658;SDS011;60181;53.258;6.932;2023-08-20T11:16:30;20.00;;;10.30;;
65658;SDS011;60181;53.258;6.932;2023-08-20T11:20:40;20.00;;;10.30;;
65658;SDS011;60181;53.258;6.932;2023-08-20T11:24:50;17.70;;;9.60;;
65658;SDS011;60181;53.258;6.932;2023-08-20T11:29:01;17.70;;;9.60;;
65658;SDS011;60181;53.258;6.932;2023-08-20T11:33:10;18.00;;;9.20;;
65658;SDS011;60181;53.258;6.932;2023-08-20T11:37:20;18.00;;;9.20;;
65658;SDS011;60181;53.258;6.932;2023-08-20T11:41:30;18.00;;;9.20;;
65658;SDS011;60181;53.258;6.932;2023-08-20T11:45:44;16.40;;;8.70;;
65658;SDS011;60181;53.258;6.932;2023-08-20T11:50:01;16.40;;;8.70;;
65658;SDS011;60181;53.258;6.932;2023-08-20T11:54:00;15.10;;;8.40;;
65658;SDS011;60181;53.258;6.932;2023-08-20T11:58:13;15.10;;;8.40;;
65658;SDS011;60181;53.258;6.932;2023-08-20T12:02:26;15.10;;;8.40;;
65658;SDS011;60181;53.258;6.932;2023-08-20T12:06:30;15.50;;;8.20;;
65658;SDS011;60181;53.258;6.932;2023-08-20T12:10:41;15.50;;;8.20;;
65658;SDS011;60181;53.258;6.932;2023-08-20T12:14:50;15.00;;;8.00;;
65658;SDS011;60181;53.258;6.932;2023-08-20T12:19:00;15.00;;;8.00;;
65658;SDS011;60181;53.258;6.932;2023-08-20T12:23:10;14.80;;;7.60;;
65658;SDS011;60181;53.258;6.932;2023-08-20T12:27:20;14.80;;;7.60;;
65658;SDS011;60181;53.258;6.932;2023-08-20T12:31:33;14.80;;;7.60;;
65658;SDS011;60181;53.258;6.932;2023-08-20T12:35:40;13.30;;;7.20;;
65658;SDS011;60181;53.258;6.932;2023-08-20T12:39:50;13.30;;;7.20;;
65658;SDS011;60181;53.258;6.932;2023-08-20T12:44:00;13.30;;;7.30;;
65658;SDS011;60181;53.258;6.932;2023-08-20T12:48:10;13.30;;;7.30;;
65658;SDS011;60181;53.258;6.932;2023-08-20T12:52:20;13.30;;;7.30;;
65658;SDS011;60181;53.258;6.932;2023-08-20T12:56:30;12.00;;;6.60;;
65658;SDS011;60181;53.258;6.932;2023-08-20T13:00:40;12.00;;;6.60;;
65658;SDS011;60181;53.258;6.932;2023-08-20T13:04:50;12.20;;;6.30;;
65658;SDS011;60181;53.258;6.932;2023-08-20T13:09:00;12.20;;;6.30;;
65658;SDS011;60181;53.258;6.932;2023-08-20T13:13:10;12.20;;;6.70;;
65658;SDS011;60181;53.258;6.932;2023-08-20T13:17:20;12.20;;;6.70;;
65658;SDS011;60181;53.258;6.932;2023-08-20T13:21:30;12.20;;;6.70;;
65658;SDS011;60181;53.258;6.932;2023-08-20T13:25:40;12.60;;;6.70;;
65658;SDS011;60181;53.258;6.932;2023-08-20T13:29:50;12.60;;;6.70;;
65658;SDS011;60181;53.258;6.932;2023-08-20T13:34:00;10.70;;;5.70;;
65658;SDS011;60181;53.258;6.932;2023-08-20T13:38:10;10.70;;;5.70;;
65658;SDS011;60181;53.258;6.932;2023-08-20T13:42:20;10.70;;;5.70;;
65658;SDS011;60181;53.258;6.932;2023-08-20T13:46:30;11.50;;;6.10;;
65658;SDS011;60181;53.258;6.932;2023-08-20T13:50:40;11.50;;;6.10;;
65658;SDS011;60181;53.258;6.932;2023-08-20T13:54:50;10.70;;;5.80;;
65658;SDS011;60181;53.258;6.932;2023-08-20T13:59:00;10.70;;;5.80;;
65658;SDS011;60181;53.258;6.932;2023-08-20T14:03:10;9.60;;;5.30;;
65658;SDS011;60181;53.258;6.932;2023-08-20T14:07:20;9.60;;;5.30;;
65658;SDS011;60181;53.258;6.932;2023-08-20T14:11:30;9.60;;;5.30;;
65658;SDS011;60181;53.258;6.932;2023-08-20T14:15:40;10.20;;;5.60;;
65658;SDS011;60181;53.258;6.932;2023-08-20T14:19:50;10.20;;;5.60;;
65658;SDS011;60181;53.258;6.932;2023-08-20T14:24:00;8.60;;;4.80;;
65658;SDS011;60181;53.258;6.932;2023-08-20T14:28:10;8.60;;;4.80;;
65658;SDS011;60181;53.258;6.932;2023-08-20T14:32:20;8.60;;;4.80;;
65658;SDS011;60181;53.258;6.932;2023-08-20T14:36:31;8.50;;;5.00;;
65658;SDS011;60181;53.258;6.932;2023-08-20T14:40:40;8.50;;;5.00;;
65658;SDS011;60181;53.258;6.932;2023-08-20T14:44:50;8.70;;;4.50;;
65658;SDS011;60181;53.258;6.932;2023-08-20T14:49:00;8.70;;;4.50;;
65658;SDS011;60181;53.258;6.932;2023-08-20T14:53:10;7.80;;;4.50;;
65658;SDS011;60181;53.258;6.932;2023-08-20T14:57:20;7.80;;;4.50;;
65658;SDS011;60181;53.258;6.932;2023-08-20T15:01:30;7.80;;;4.50;;
65658;SDS011;60181;53.258;6.932;2023-08-20T15:05:40;8.40;;;4.80;;
65658;SDS011;60181;53.258;6.932;2023-08-20T15:09:50;8.40;;;4.80;;
65658;SDS011;60181;53.258;6.932;2023-08-20T15:14:00;7.90;;;4.30;;
65658;SDS011;60181;53.258;6.932;2023-08-20T15:18:10;7.90;;;4.30;;
65658;SDS011;60181;53.258;6.932;2023-08-20T15:22:20;7.90;;;4.30;;
65658;SDS011;60181;53.258;6.932;2023-08-20T15:26:30;8.30;;;4.10;;
65658;SDS011;60181;53.258;6.932;2023-08-20T15:30:40;8.30;;;4.10;;
65658;SDS011;60181;53.258;6.932;2023-08-20T15:34:50;6.80;;;3.90;;
65658;SDS011;60181;53.258;6.932;2023-08-20T15:39:00;6.80;;;3.90;;
65658;SDS011;60181;53.258;6.932;2023-08-20T15:43:10;6.60;;;3.80;;
65658;SDS011;60181;53.258;6.932;2023-08-20T15:47:20;6.60;;;3.80;;
65658;SDS011;60181;53.258;6.932;2023-08-20T15:51:30;6.60;;;3.80;;
65658;SDS011;60181;53.258;6.932;2023-08-20T15:55:40;7.50;;;3.70;;
65658;SDS011;60181;53.258;6.932;2023-08-20T15:59:50;7.50;;;3.70;;
65658;SDS011;60181;53.258;6.932;2023-08-20T16:04:00;7.00;;;3.50;;
65658;SDS011;60181;53.258;6.932;2023-08-20T16:08:10;7.00;;;3.50;;
65658;SDS011;60181;53.258;6.932;2023-08-20T16:12:20;7.00;;;3.50;;
65658;SDS011;60181;53.258;6.932;2023-08-20T16:16:30;6.20;;;3.50;;
65658;SDS011;60181;53.258;6.932;2023-08-20T16:20:40;6.20;;;3.50;;
65658;SDS011;60181;53.258;6.932;2023-08-20T16:24:50;6.20;;;3.20;;
65658;SDS011;60181;53.258;6.932;2023-08-20T16:29:00;6.20;;;3.20;;
65658;SDS011;60181;53.258;6.932;2023-08-20T16:33:10;6.10;;;3.10;;
65658;SDS011;60181;53.258;6.932;2023-08-20T16:37:20;6.10;;;3.10;;
65658;SDS011;60181;53.258;6.932;2023-08-20T16:41:30;6.10;;;3.10;;
65658;SDS011;60181;53.258;6.932;2023-08-20T16:45:40;6.20;;;3.10;;
65658;SDS011;60181;53.258;6.932;2023-08-20T16:49:50;6.20;;;3.10;;
65658;SDS011;60181;53.258;6.932;2023-08-20T16:54:00;5.10;;;3.00;;
65658;SDS011;60181;53.258;6.932;2023-08-20T16:58:10;5.10;;;3.00;;
65658;SDS011;60181;53.258;6.932;2023-08-20T17:02:20;5.10;;;3.00;;
65658;SDS011;60181;53.258;6.932;2023-08-20T17:06:30;5.70;;;2.90;;
65658;SDS011;60181;53.258;6.932;2023-08-20T17:10:40;5.70;;;2.90;;
65658;SDS011;60181;53.258;6.932;2023-08-20T17:14:50;6.40;;;2.70;;
65658;SDS011;60181;53.258;6.932;2023-08-20T17:19:00;6.40;;;2.70;;
65658;SDS011;60181;53.258;6.932;2023-08-20T17:23:10;5.00;;;2.60;;
65658;SDS011;60181;53.258;6.932;2023-08-20T17:27:20;5.00;;;2.60;;
65658;SDS011;60181;53.258;6.932;2023-08-20T17:31:30;5.00;;;2.60;;
65658;SDS011;60181;53.258;6.932;2023-08-20T17:35:40;4.60;;;2.70;;
65658;SDS011;60181;53.258;6.932;2023-08-20T17:39:50;4.60;;;2.70;;
65658;SDS011;60181;53.258;6.932;2023-08-20T17:44:00;6.50;;;2.40;;
65658;SDS011;60181;53.258;6.932;2023-08-20T17:48:10;6.50;;;2.40;;
65658;SDS011;60181;53.258;6.932;2023-08-20T17:52:20;6.50;;;2.40;;
65658;SDS011;60181;53.258;6.932;2023-08-20T17:56:30;5.40;;;2.30;;
65658;SDS011;60181;53.258;6.932;2023-08-20T18:00:43;5.40;;;2.30;;
65658;SDS011;60181;53.258;6.932;2023-08-20T18:04:50;5.30;;;2.60;;
65658;SDS011;60181;53.258;6.932;2023-08-20T18:09:00;5.30;;;2.60;;
65658;SDS011;60181;53.258;6.932;2023-08-20T18:13:10;7.10;;;2.50;;
65658;SDS011;60181;53.258;6.932;2023-08-20T18:17:20;7.10;;;2.50;;
65658;SDS011;60181;53.258;6.932;2023-08-20T18:21:30;7.10;;;2.50;;
65658;SDS011;60181;53.258;6.932;2023-08-20T18:25:40;5.80;;;2.60;;
65658;SDS011;60181;53.258;6.932;2023-08-20T18:29:50;5.80;;;2.60;;
65658;SDS011;60181;53.258;6.932;2023-08-20T18:34:00;5.10;;;2.40;;
65658;SDS011;60181;53.258;6.932;2023-08-20T18:38:18;5.10;;;2.40;;
65658;SDS011;60181;53.258;6.932;2023-08-20T18:42:20;5.10;;;2.40;;
65658;SDS011;60181;53.258;6.932;2023-08-20T18:46:30;6.80;;;2.50;;
65658;SDS011;60181;53.258;6.932;2023-08-20T18:50:40;6.80;;;2.50;;
65658;SDS011;60181;53.258;6.932;2023-08-20T18:54:50;4.80;;;2.20;;
65658;SDS011;60181;53.258;6.932;2023-08-20T18:59:00;4.80;;;2.20;;
65658;SDS011;60181;53.258;6.932;2023-08-20T19:03:10;5.40;;;2.10;;
65658;SDS011;60181;53.258;6.932;2023-08-20T19:07:20;5.40;;;2.10;;
65658;SDS011;60181;53.258;6.932;2023-08-20T19:11:30;5.40;;;2.10;;
65658;SDS011;60181;53.258;6.932;2023-08-20T19:15:43;6.90;;;2.40;;
65658;SDS011;60181;53.258;6.932;2023-08-20T19:19:50;6.90;;;2.40;;
65658;SDS011;60181;53.258;6.932;2023-08-20T19:24:00;4.10;;;2.10;;
65658;SDS011;60181;53.258;6.932;2023-08-20T19:28:10;4.10;;;2.10;;
65658;SDS011;60181;53.258;6.932;2023-08-20T19:32:20;4.10;;;2.10;;
65658;SDS011;60181;53.258;6.932;2023-08-20T19:36:30;4.30;;;2.10;;
65658;SDS011;60181;53.258;6.932;2023-08-20T19:40:40;4.30;;;2.10;;
65658;SDS011;60181;53.258;6.932;2023-08-20T19:44:50;4.60;;;2.20;;
65658;SDS011;60181;53.258;6.932;2023-08-20T19:49:00;4.60;;;2.20;;
65658;SDS011;60181;53.258;6.932;2023-08-20T19:53:10;6.00;;;2.40;;
65658;SDS011;60181;53.258;6.932;2023-08-20T19:57:20;6.00;;;2.40;;
65658;SDS011;60181;53.258;6.932;2023-08-20T20:01:30;6.00;;;2.40;;
65658;SDS011;60181;53.258;6.932;2023-08-20T20:05:40;5.50;;;2.50;;
65658;SDS011;60181;53.258;6.932;2023-08-20T20:09:50;5.50;;;2.50;;
65658;SDS011;60181;53.258;6.932;2023-08-20T20:14:00;5.70;;;2.30;;
65658;SDS011;60181;53.258;6.932;2023-08-20T20:18:10;5.70;;;2.30;;
65658;SDS011;60181;53.258;6.932;2023-08-20T20:22:20;5.70;;;2.30;;
65658;SDS011;60181;53.258;6.932;2023-08-20T20:26:30;7.10;;;2.70;;
65658;SDS011;60181;53.258;6.932;2023-08-20T20:30:40;7.10;;;2.70;;
65658;SDS011;60181;53.258;6.932;2023-08-20T20:34:50;8.40;;;2.90;;
65658;SDS011;60181;53.258;6.932;2023-08-20T20:39:00;8.40;;;2.90;;
65658;SDS011;60181;53.258;6.932;2023-08-20T20:43:10;6.70;;;2.80;;
65658;SDS011;60181;53.258;6.932;2023-08-20T20:47:20;6.70;;;2.80;;
65658;SDS011;60181;53.258;6.932;2023-08-20T20:51:30;6.70;;;2.80;;
65658;SDS011;60181;53.258;6.932;2023-08-20T20:55:40;5.80;;;2.90;;
65658;SDS011;60181;53.258;6.932;2023-08-20T20:59:50;5.80;;;2.90;;
65658;SDS011;60181;53.258;6.932;2023-08-20T21:04:00;5.30;;;2.60;;
65658;SDS011;60181;53.258;6.932;2023-08-20T21:08:10;5.30;;;2.60;;
65658;SDS011;60181;53.258;6.932;2023-08-20T21:12:20;5.30;;;2.60;;
65658;SDS011;60181;53.258;6.932;2023-08-20T21:16:30;6.50;;;2.90;;
65658;SDS011;60181;53.258;6.932;2023-08-20T21:20:40;6.50;;;2.90;;
65658;SDS011;60181;53.258;6.932;2023-08-20T21:24:50;6.50;;;3.00;;
65658;SDS011;60181;53.258;6.932;2023-08-20T21:29:00;6.50;;;3.00;;
65658;SDS011;60181;53.258;6.932;2023-08-20T21:33:10;6.60;;;3.10;;
65658;SDS011;60181;53.258;6.932;2023-08-20T21:37:20;6.60;;;3.10;;
65658;SDS011;60181;53.258;6.932;2023-08-20T21:41:29;6.60;;;3.10;;
65658;SDS011;60181;53.258;6.932;2023-08-20T21:45:39;8.40;;;3.40;;
65658;SDS011;60181;53.258;6.932;2023-08-20T21:49:50;8.40;;;3.40;;
65658;SDS011;60181;53.258;6.932;2023-08-20T21:54:00;7.30;;;3.30;;
65658;SDS011;60181;53.258;6.932;2023-08-20T21:58:09;7.30;;;3.30;;
65658;SDS011;60181;53.258;6.932;2023-08-20T22:02:19;7.30;;;3.30;;
65658;SDS011;60181;53.258;6.932;2023-08-20T22:06:29;6.60;;;3.10;;
65658;SDS011;60181;53.258;6.932;2023-08-20T22:10:39;6.60;;;3.10;;
65658;SDS011;60181;53.258;6.932;2023-08-20T22:14:49;6.90;;;3.60;;
65658;SDS011;60181;53.258;6.932;2023-08-20T22:18:59;6.90;;;3.60;;
65658;SDS011;60181;53.258;6.932;2023-08-20T22:23:09;7.90;;;3.90;;
65658;SDS011;60181;53.258;6.932;2023-08-20T22:27:19;7.90;;;3.90;;
65658;SDS011;60181;53.258;6.932;2023-08-20T22:31:30;7.90;;;3.90;;
65658;SDS011;60181;53.258;6.932;2023-08-20T22:35:39;7.40;;;4.00;;
65658;SDS011;60181;53.258;6.932;2023-08-20T22:39:50;7.40;;;4.00;;
65658;SDS011;60181;53.258;6.932;2023-08-20T22:44:00;7.00;;;3.80;;
65658;SDS011;60181;53.258;6.932;2023-08-20T22:48:09;7.00;;;3.80;;
65658;SDS011;60181;53.258;6.932;2023-08-20T22:52:19;7.00;;;3.80;;
65658;SDS011;60181;53.258;6.932;2023-08-20T22:56:29;7.20;;;3.90;;
65658;SDS011;60181;53.258;6.932;2023-08-20T23:00:39;7.20;;;3.90;;
65658;SDS011;60181;53.258;6.932;2023-08-20T23:04:49;7.70;;;3.90;;
65658;SDS011;60181;53.258;6.932;2023-08-20T23:08:59;7.70;;;3.90;;
65658;SDS011;60181;53.258;6.932;2023-08-20T23:13:09;7.60;;;4.00;;
65658;SDS011;60181;53.258;6.932;2023-08-20T23:17:19;7.60;;;4.00;;
65658;SDS011;60181;53.258;6.932;2023-08-20T23:21:29;7.60;;;4.00;;
65658;SDS011;60181;53.258;6.932;2023-08-20T23:25:39;8.10;;;3.90;;
65658;SDS011;60181;53.258;6.932;2023-08-20T23:29:49;8.10;;;3.90;;
65658;SDS011;60181;53.258;6.932;2023-08-20T23:33:59;8.10;;;4.00;;
65658;SDS011;60181;53.258;6.932;2023-08-20T23:38:10;8.10;;;4.00;;
65658;SDS011;60181;53.258;6.932;2023-08-20T23:42:19;8.10;;;4.00;;
65658;SDS011;60181;53.258;6.932;2023-08-20T23:46:29;7.80;;;4.00;;
65658;SDS011;60181;53.258;6.932;2023-08-20T23:50:39;7.80;;;4.00;;
65658;SDS011;60181;53.258;6.932;2023-08-20T23:54:49;7.40;;;4.10;;
65658;SDS011;60181;53.258;6.932;2023-08-20T23:58:59;7.40;;;4.10;;
